sensor_id;sensor_type;location;lat;lon;timestamp;temperature;humidity
6146;DHT22;3104;50.348;7.620;2023-09-18T00:01:38;21.80;99.90
6146;DHT22;3104;50.348;7.620;2023-09-18T00:04:07;21.90;99.90
6146;DHT22;3104;50.348;7.620;2023-09-18T00:06:33;21.80;99.90
6146;DHT22;3104;50.348;7.620;2023-09-18T00:08:58;21.80;1.00
6146;DHT22;3104;50.348;7.620;2023-09-18T00:11:24;21.80;1.00
6146;DHT22;3104;50.348;7.620;2023-09-18T00:13:50;21.70;1.00
6146;DHT22;3104;50.348;7.620;2023-09-18T00:16:15;21.70;99.90
6146;DHT22;3104;50.348;7.620;2023-09-18T00:18:41;21.70;26.00
6146;DHT22;3104;50.348;7.620;2023-09-18T00:21:08;21.70;1.00
6146;DHT22;3104;50.348;7.620;2023-09-18T00:23:36;21.70;1.00
6146;DHT22;3104;50.348;7.620;2023-09-18T00:26:02;21.60;99.90
6146;DHT22;3104;50.348;7.620;2023-09-18T00:28:27;21.60;99.90
6146;DHT22;3104;50.348;7.620;2023-09-18T00:30:53;21.60;99.90
6146;DHT22;3104;50.348;7.620;2023-09-18T00:33:19;21.60;1.00
6146;DHT22;3104;50.348;7.620;2023-09-18T00:35:49;21.60;1.00
6146;DHT22;3104;50.348;7.620;2023-09-18T00:38:16;21.60;1.00
6146;DHT22;3104;50.348;7.620;2023-09-18T00:40:42;21.50;1.00
6146;DHT22;3104;50.348;7.620;2023-09-18T00:43:08;21.50;1.00
6146;DHT22;3104;50.348;7.620;2023-09-18T00:45:40;21.40;44.70
6146;DHT22;3104;50.348;7.620;2023-09-18T00:48:06;21.40;1.00
6146;DHT22;3104;50.348;7.620;2023-09-18T00:50:32;21.40;51.30
6146;DHT22;3104;50.348;7.620;2023-09-18T00:52:59;21.40;7.90
6146;DHT22;3104;50.348;7.620;2023-09-18T00:55:25;21.30;99.90
6146;DHT22;3104;50.348;7.620;2023-09-18T00:57:50;21.30;99.90
6146;DHT22;3104;50.348;7.620;2023-09-18T01:00:16;21.30;99.90
6146;DHT22;3104;50.348;7.620;2023-09-18T01:02:43;21.30;99.90
6146;DHT22;3104;50.348;7.620;2023-09-18T01:05:10;21.30;99.90
6146;DHT22;3104;50.348;7.620;2023-09-18T01:07:36;21.30;99.90
6146;DHT22;3104;50.348;7.620;2023-09-18T01:10:02;21.30;99.90
6146;DHT22;3104;50.348;7.620;2023-09-18T01:12:55;21.30;99.90
6146;DHT22;3104;50.348;7.620;2023-09-18T01:15:32;21.20;99.90
6146;DHT22;3104;50.348;7.620;2023-09-18T01:18:00;21.30;99.90
6146;DHT22;3104;50.348;7.620;2023-09-18T01:20:26;21.20;99.90
6146;DHT22;3104;50.348;7.620;2023-09-18T01:22:52;21.30;99.90
6146;DHT22;3104;50.348;7.620;2023-09-18T01:25:18;21.30;99.90
6146;DHT22;3104;50.348;7.620;2023-09-18T01:27:44;21.30;99.90
6146;DHT22;3104;50.348;7.620;2023-09-18T01:30:10;21.40;99.90
6146;DHT22;3104;50.348;7.620;2023-09-18T01:32:36;21.30;99.90
6146;DHT22;3104;50.348;7.620;2023-09-18T01:35:04;21.30;1.00
6146;DHT22;3104;50.348;7.620;2023-09-18T01:37:34;21.20;1.00
6146;DHT22;3104;50.348;7.620;2023-09-18T01:40:02;21.20;1.00
6146;DHT22;3104;50.348;7.620;2023-09-18T01:42:31;21.20;1.00
6146;DHT22;3104;50.348;7.620;2023-09-18T01:44:58;21.40;1.00
6146;DHT22;3104;50.348;7.620;2023-09-18T01:47:23;21.60;1.00
6146;DHT22;3104;50.348;7.620;2023-09-18T01:49:49;21.60;1.00
6146;DHT22;3104;50.348;7.620;2023-09-18T01:52:15;21.70;1.00
6146;DHT22;3104;50.348;7.620;2023-09-18T01:54:41;21.80;99.90
6146;DHT22;3104;50.348;7.620;2023-09-18T01:57:07;21.80;99.90
6146;DHT22;3104;50.348;7.620;2023-09-18T01:59:33;21.70;75.50
6146;DHT22;3104;50.348;7.620;2023-09-18T02:01:59;21.80;99.90
6146;DHT22;3104;50.348;7.620;2023-09-18T02:04:25;21.80;1.00
6146;DHT22;3104;50.348;7.620;2023-09-18T02:06:52;21.60;31.80
6146;DHT22;3104;50.348;7.620;2023-09-18T02:09:18;21.40;1.00
6146;DHT22;3104;50.348;7.620;2023-09-18T02:11:46;21.20;1.00
6146;DHT22;3104;50.348;7.620;2023-09-18T02:14:11;21.00;99.90
6146;DHT22;3104;50.348;7.620;2023-09-18T02:16:39;20.80;99.90
6146;DHT22;3104;50.348;7.620;2023-09-18T02:19:09;20.50;99.90
6146;DHT22;3104;50.348;7.620;2023-09-18T02:21:35;20.40;99.90
6146;DHT22;3104;50.348;7.620;2023-09-18T02:24:01;20.20;99.90
6146;DHT22;3104;50.348;7.620;2023-09-18T02:26:27;20.10;99.90
6146;DHT22;3104;50.348;7.620;2023-09-18T02:28:54;20.10;99.90
6146;DHT22;3104;50.348;7.620;2023-09-18T02:31:20;20.10;99.90
6146;DHT22;3104;50.348;7.620;2023-09-18T02:33:46;20.20;99.90
6146;DHT22;3104;50.348;7.620;2023-09-18T02:36:16;20.20;99.90
6146;DHT22;3104;50.348;7.620;2023-09-18T02:38:42;20.30;99.90
6146;DHT22;3104;50.348;7.620;2023-09-18T02:41:08;20.30;99.90
6146;DHT22;3104;50.348;7.620;2023-09-18T02:43:34;20.20;99.90
6146;DHT22;3104;50.348;7.620;2023-09-18T02:45:59;20.20;99.90
6146;DHT22;3104;50.348;7.620;2023-09-18T02:48:25;20.20;99.90
6146;DHT22;3104;50.348;7.620;2023-09-18T02:50:50;20.20;99.90
6146;DHT22;3104;50.348;7.620;2023-09-18T02:53:21;20.10;99.90
6146;DHT22;3104;50.348;7.620;2023-09-18T02:55:51;20.10;99.90
6146;DHT22;3104;50.348;7.620;2023-09-18T02:58:17;20.10;99.90
6146;DHT22;3104;50.348;7.620;2023-09-18T03:00:45;20.10;99.90
6146;DHT22;3104;50.348;7.620;2023-09-18T03:03:11;20.10;99.90
6146;DHT22;3104;50.348;7.620;2023-09-18T03:05:38;20.00;99.90
6146;DHT22;3104;50.348;7.620;2023-09-18T03:08:04;19.90;99.90
6146;DHT22;3104;50.348;7.620;2023-09-18T03:10:37;19.90;99.90
6146;DHT22;3104;50.348;7.620;2023-09-18T03:13:03;19.90;99.90
6146;DHT22;3104;50.348;7.620;2023-09-18T03:15:29;20.00;99.90
6146;DHT22;3104;50.348;7.620;2023-09-18T03:17:56;20.00;99.90
6146;DHT22;3104;50.348;7.620;2023-09-18T03:20:23;19.90;99.90
6146;DHT22;3104;50.348;7.620;2023-09-18T03:22:54;19.80;99.90
6146;DHT22;3104;50.348;7.620;2023-09-18T03:25:19;19.80;99.90
6146;DHT22;3104;50.348;7.620;2023-09-18T03:27:45;19.90;99.90
6146;DHT22;3104;50.348;7.620;2023-09-18T03:30:11;19.90;99.90
6146;DHT22;3104;50.348;7.620;2023-09-18T03:32:43;19.90;99.90
6146;DHT22;3104;50.348;7.620;2023-09-18T03:35:09;19.90;99.90
6146;DHT22;3104;50.348;7.620;2023-09-18T03:37:43;19.80;99.90
6146;DHT22;3104;50.348;7.620;2023-09-18T03:40:09;19.80;99.90
6146;DHT22;3104;50.348;7.620;2023-09-18T03:42:35;19.70;99.90
6146;DHT22;3104;50.348;7.620;2023-09-18T03:45:00;19.80;99.90
6146;DHT22;3104;50.348;7.620;2023-09-18T03:47:26;19.80;99.90
6146;DHT22;3104;50.348;7.620;2023-09-18T03:49:51;19.80;99.90
6146;DHT22;3104;50.348;7.620;2023-09-18T03:52:17;19.90;99.90
6146;DHT22;3104;50.348;7.620;2023-09-18T03:54:42;19.90;99.90
6146;DHT22;3104;50.348;7.620;2023-09-18T03:57:08;19.80;99.90
6146;DHT22;3104;50.348;7.620;2023-09-18T03:59:34;19.80;99.90
6146;DHT22;3104;50.348;7.620;2023-09-18T04:01:59;19.80;99.90
6146;DHT22;3104;50.348;7.620;2023-09-18T04:04:25;19.80;99.90
6146;DHT22;3104;50.348;7.620;2023-09-18T04:06:50;19.80;99.90
6146;DHT22;3104;50.348;7.620;2023-09-18T04:09:16;19.70;99.90
6146;DHT22;3104;50.348;7.620;2023-09-18T04:11:43;19.80;99.90
6146;DHT22;3104;50.348;7.620;2023-09-18T04:14:08;19.80;99.90
6146;DHT22;3104;50.348;7.620;2023-09-18T04:16:34;19.80;99.90
6146;DHT22;3104;50.348;7.620;2023-09-18T04:19:18;19.80;99.90
6146;DHT22;3104;50.348;7.620;2023-09-18T04:21:44;19.80;99.90
6146;DHT22;3104;50.348;7.620;2023-09-18T04:24:10;19.80;99.90
6146;DHT22;3104;50.348;7.620;2023-09-18T04:26:35;19.90;99.90
6146;DHT22;3104;50.348;7.620;2023-09-18T04:29:03;19.90;99.90
6146;DHT22;3104;50.348;7.620;2023-09-18T04:31:28;19.90;99.90
6146;DHT22;3104;50.348;7.620;2023-09-18T04:33:55;20.00;99.90
6146;DHT22;3104;50.348;7.620;2023-09-18T04:36:20;20.00;99.90
6146;DHT22;3104;50.348;7.620;2023-09-18T04:38:46;20.00;99.90
6146;DHT22;3104;50.348;7.620;2023-09-18T04:41:12;20.00;99.90
6146;DHT22;3104;50.348;7.620;2023-09-18T04:43:37;19.90;99.90
6146;DHT22;3104;50.348;7.620;2023-09-18T04:46:07;19.90;99.90
6146;DHT22;3104;50.348;7.620;2023-09-18T04:48:33;20.00;99.90
6146;DHT22;3104;50.348;7.620;2023-09-18T04:50:59;19.90;99.90
6146;DHT22;3104;50.348;7.620;2023-09-18T04:53:26;19.90;99.90
6146;DHT22;3104;50.348;7.620;2023-09-18T04:55:52;19.80;99.90
6146;DHT22;3104;50.348;7.620;2023-09-18T04:58:18;19.70;99.90
6146;DHT22;3104;50.348;7.620;2023-09-18T05:00:44;19.80;99.90
6146;DHT22;3104;50.348;7.620;2023-09-18T05:03:10;19.80;99.90
6146;DHT22;3104;50.348;7.620;2023-09-18T05:05:36;19.70;99.90
6146;DHT22;3104;50.348;7.620;2023-09-18T05:08:03;19.80;99.90
6146;DHT22;3104;50.348;7.620;2023-09-18T05:10:30;19.70;99.90
6146;DHT22;3104;50.348;7.620;2023-09-18T05:12:56;19.60;99.90
6146;DHT22;3104;50.348;7.620;2023-09-18T05:15:24;19.70;99.90
6146;DHT22;3104;50.348;7.620;2023-09-18T05:18:00;19.70;99.90
6146;DHT22;3104;50.348;7.620;2023-09-18T05:20:27;19.80;99.90
6146;DHT22;3104;50.348;7.620;2023-09-18T05:22:54;19.80;99.90
6146;DHT22;3104;50.348;7.620;2023-09-18T05:25:21;19.90;99.90
6146;DHT22;3104;50.348;7.620;2023-09-18T05:28:00;19.90;99.90
6146;DHT22;3104;50.348;7.620;2023-09-18T05:30:27;19.80;99.90
6146;DHT22;3104;50.348;7.620;2023-09-18T05:32:54;19.80;99.90
6146;DHT22;3104;50.348;7.620;2023-09-18T05:35:20;19.90;99.90
6146;DHT22;3104;50.348;7.620;2023-09-18T05:37:46;19.90;99.90
6146;DHT22;3104;50.348;7.620;2023-09-18T05:40:13;19.90;99.90
6146;DHT22;3104;50.348;7.620;2023-09-18T05:42:42;19.80;99.90
6146;DHT22;3104;50.348;7.620;2023-09-18T05:45:13;19.80;99.90
6146;DHT22;3104;50.348;7.620;2023-09-18T05:47:38;19.90;99.90
6146;DHT22;3104;50.348;7.620;2023-09-18T05:50:06;19.80;99.90
6146;DHT22;3104;50.348;7.620;2023-09-18T05:52:33;19.80;99.90
6146;DHT22;3104;50.348;7.620;2023-09-18T05:55:02;19.90;99.90
6146;DHT22;3104;50.348;7.620;2023-09-18T05:57:28;19.80;99.90
6146;DHT22;3104;50.348;7.620;2023-09-18T05:59:57;19.90;99.90
6146;DHT22;3104;50.348;7.620;2023-09-18T06:02:23;20.00;99.90
6146;DHT22;3104;50.348;7.620;2023-09-18T06:05:00;20.00;99.90
6146;DHT22;3104;50.348;7.620;2023-09-18T06:07:29;20.00;99.90
6146;DHT22;3104;50.348;7.620;2023-09-18T06:09:58;19.90;99.90
6146;DHT22;3104;50.348;7.620;2023-09-18T06:12:24;20.00;99.90
6146;DHT22;3104;50.348;7.620;2023-09-18T06:14:50;20.00;99.90
6146;DHT22;3104;50.348;7.620;2023-09-18T06:17:16;19.90;99.90
6146;DHT22;3104;50.348;7.620;2023-09-18T11:37:38;21.70;91.30
6146;DHT22;3104;50.348;7.620;2023-09-18T11:40:37;22.00;1.00
6146;DHT22;3104;50.348;7.620;2023-09-18T11:43:29;22.30;1.00
6146;DHT22;3104;50.348;7.620;2023-09-18T14:44:49;25.90;1.00
6146;DHT22;3104;50.348;7.620;2023-09-18T17:16:05;24.30;37.50
6146;DHT22;3104;50.348;7.620;2023-09-18T17:59:43;23.00;1.00
6146;DHT22;3104;50.348;7.620;2023-09-18T18:33:14;22.30;1.00
6146;DHT22;3104;50.348;7.620;2023-09-18T18:56:49;21.80;99.90
6146;DHT22;3104;50.348;7.620;2023-09-18T18:59:42;21.70;1.00
6146;DHT22;3104;50.348;7.620;2023-09-18T19:20:33;20.50;1.00
6146;DHT22;3104;50.348;7.620;2023-09-18T20:01:17;18.10;99.90
6146;DHT22;3104;50.348;7.620;2023-09-18T20:04:40;18.10;99.90
6146;DHT22;3104;50.348;7.620;2023-09-18T20:08:14;18.00;99.90
6146;DHT22;3104;50.348;7.620;2023-09-18T20:31:36;18.10;99.90
6146;DHT22;3104;50.348;7.620;2023-09-18T20:34:29;18.10;99.90
6146;DHT22;3104;50.348;7.620;2023-09-18T20:40:41;18.00;99.90
6146;DHT22;3104;50.348;7.620;2023-09-18T20:57:17;18.00;99.90
6146;DHT22;3104;50.348;7.620;2023-09-18T21:00:07;17.90;99.90
6146;DHT22;3104;50.348;7.620;2023-09-18T21:12:42;17.70;99.90
6146;DHT22;3104;50.348;7.620;2023-09-18T21:25:25;17.70;99.90
6146;DHT22;3104;50.348;7.620;2023-09-18T21:45:53;17.70;99.90
6146;DHT22;3104;50.348;7.620;2023-09-18T22:36:16;17.70;99.90
6146;DHT22;3104;50.348;7.620;2023-09-18T23:19:31;17.50;99.90
6146;DHT22;3104;50.348;7.620;2023-09-18T23:53:08;17.30;99.90
